sensor_id;sensor_type;location;lat;lon;timestamp;pressure;altitude;pressure_sealevel;temperature;humidity
26563;BME280;14217;50.986;5.826;2023-03-12T00:04:14;100498.00;;;17.00;39.43
26563;BME280;14217;50.986;5.826;2023-03-12T00:09:16;100498.00;;;17.00;39.49
26563;BME280;14217;50.986;5.826;2023-03-12T00:14:18;100504.16;;;17.01;39.46
26563;BME280;14217;50.986;5.826;2023-03-12T00:19:21;100495.28;;;17.02;39.21
26563;BME280;14217;50.986;5.826;2023-03-12T00:24:23;100497.94;;;17.02;39.26
26563;BME280;14217;50.986;5.826;2023-03-12T00:29:25;100500.53;;;17.03;39.16
26563;BME280;14217;50.986;5.826;2023-03-12T00:34:27;100494.28;;;17.04;39.27
26563;BME280;14217;50.986;5.826;2023-03-12T00:39:29;100491.84;;;17.00;39.23
26563;BME280;14217;50.986;5.826;2023-03-12T00:44:31;100490.00;;;17.02;39.53
26563;BME280;14217;50.986;5.826;2023-03-12T00:49:32;100497.78;;;17.05;39.47
26563;BME280;14217;50.986;5.826;2023-03-12T00:54:34;100477.56;;;17.04;39.58
26563;BME280;14217;50.986;5.826;2023-03-12T00:59:36;100481.13;;;17.03;39.62
26563;BME280;14217;50.986;5.826;2023-03-12T01:04:41;100472.28;;;17.04;39.53
26563;BME280;14217;50.986;5.826;2023-03-12T01:09:42;100460.94;;;17.00;39.64
26563;BME280;14217;50.986;5.826;2023-03-12T01:14:44;100456.50;;;17.01;39.56
26563;BME280;14217;50.986;5.826;2023-03-12T01:19:46;100445.06;;;17.00;39.35
26563;BME280;14217;50.986;5.826;2023-03-12T01:24:48;100442.31;;;17.03;39.55
26563;BME280;14217;50.986;5.826;2023-03-12T01:29:50;100430.72;;;17.06;39.39
26563;BME280;14217;50.986;5.826;2023-03-12T01:34:52;100430.03;;;17.01;39.59
26563;BME280;14217;50.986;5.826;2023-03-12T01:39:54;100435.22;;;17.04;39.51
26563;BME280;14217;50.986;5.826;2023-03-12T01:45:01;100433.47;;;17.03;39.54
26563;BME280;14217;50.986;5.826;2023-03-12T01:50:03;100415.84;;;17.03;39.33
26563;BME280;14217;50.986;5.826;2023-03-12T01:55:12;100414.94;;;17.03;39.35
26563;BME280;14217;50.986;5.826;2023-03-12T02:00:19;100412.25;;;17.04;39.24
26563;BME280;14217;50.986;5.826;2023-03-12T02:05:23;100409.44;;;17.07;39.54
26563;BME280;14217;50.986;5.826;2023-03-12T02:10:26;100398.16;;;17.04;39.34
26563;BME280;14217;50.986;5.826;2023-03-12T02:15:28;100377.91;;;17.03;39.49
26563;BME280;14217;50.986;5.826;2023-03-12T02:21:01;100373.50;;;17.03;39.53
26563;BME280;14217;50.986;5.826;2023-03-12T02:26:06;100370.13;;;17.00;39.46
26563;BME280;14217;50.986;5.826;2023-03-12T02:31:12;100362.28;;;16.97;39.45
26563;BME280;14217;50.986;5.826;2023-03-12T02:36:15;100356.59;;;17.06;39.42
26563;BME280;14217;50.986;5.826;2023-03-12T02:41:44;100356.94;;;16.98;39.51
26563;BME280;14217;50.986;5.826;2023-03-12T02:46:49;100352.22;;;17.05;39.23
26563;BME280;14217;50.986;5.826;2023-03-12T02:51:52;100359.38;;;17.03;39.45
26563;BME280;14217;50.986;5.826;2023-03-12T02:56:54;100358.53;;;17.02;39.40
26563;BME280;14217;50.986;5.826;2023-03-12T03:01:58;100353.16;;;17.04;39.52
26563;BME280;14217;50.986;5.826;2023-03-12T03:07:01;100366.34;;;17.05;39.65
26563;BME280;14217;50.986;5.826;2023-03-12T03:12:03;100348.72;;;17.04;39.49
26563;BME280;14217;50.986;5.826;2023-03-12T03:17:05;100346.22;;;17.01;39.59
26563;BME280;14217;50.986;5.826;2023-03-12T03:22:07;100341.63;;;17.05;39.53
26563;BME280;14217;50.986;5.826;2023-03-12T03:27:09;100332.13;;;17.01;39.79
26563;BME280;14217;50.986;5.826;2023-03-12T03:32:11;100336.28;;;17.06;39.44
26563;BME280;14217;50.986;5.826;2023-03-12T03:37:13;100325.06;;;17.01;39.67
26563;BME280;14217;50.986;5.826;2023-03-12T03:42:15;100329.47;;;17.01;39.68
26563;BME280;14217;50.986;5.826;2023-03-12T03:47:17;100336.34;;;17.05;39.81
26563;BME280;14217;50.986;5.826;2023-03-12T03:52:19;100332.00;;;17.04;39.52
26563;BME280;14217;50.986;5.826;2023-03-12T03:57:22;100327.75;;;17.00;39.61
26563;BME280;14217;50.986;5.826;2023-03-12T04:02:24;100326.03;;;16.99;39.84
26563;BME280;14217;50.986;5.826;2023-03-12T04:07:27;100314.38;;;17.03;39.69
26563;BME280;14217;50.986;5.826;2023-03-12T04:12:29;100319.81;;;17.00;39.73
26563;BME280;14217;50.986;5.826;2023-03-12T04:17:31;100306.53;;;17.01;39.85
26563;BME280;14217;50.986;5.826;2023-03-12T04:22:33;100295.94;;;17.01;40.00
26563;BME280;14217;50.986;5.826;2023-03-12T04:27:35;100296.06;;;16.98;39.77
26563;BME280;14217;50.986;5.826;2023-03-12T04:32:37;100298.50;;;17.03;39.75
26563;BME280;14217;50.986;5.826;2023-03-12T04:37:39;100288.06;;;17.00;39.79
26563;BME280;14217;50.986;5.826;2023-03-12T04:42:41;100271.13;;;17.04;39.71
26563;BME280;14217;50.986;5.826;2023-03-12T04:47:43;100269.53;;;17.00;39.84
26563;BME280;14217;50.986;5.826;2023-03-12T04:52:45;100261.59;;;17.00;39.86
26563;BME280;14217;50.986;5.826;2023-03-12T04:57:47;100267.75;;;17.00;40.20
26563;BME280;14217;50.986;5.826;2023-03-12T05:02:49;100263.25;;;17.02;39.88
26563;BME280;14217;50.986;5.826;2023-03-12T05:07:51;100270.16;;;17.05;40.11
26563;BME280;14217;50.986;5.826;2023-03-12T05:12:53;100253.38;;;17.06;40.11
26563;BME280;14217;50.986;5.826;2023-03-12T05:17:55;100242.00;;;17.04;40.14
26563;BME280;14217;50.986;5.826;2023-03-12T05:22:57;100241.06;;;17.05;39.88
26563;BME280;14217;50.986;5.826;2023-03-12T05:27:58;100239.59;;;16.99;39.94
26563;BME280;14217;50.986;5.826;2023-03-12T05:33:01;100222.75;;;17.00;40.05
26563;BME280;14217;50.986;5.826;2023-03-12T05:38:03;100213.97;;;17.00;39.90
26563;BME280;14217;50.986;5.826;2023-03-12T05:43:05;100218.25;;;17.02;39.85
26563;BME280;14217;50.986;5.826;2023-03-12T05:48:07;100211.31;;;17.00;40.04
26563;BME280;14217;50.986;5.826;2023-03-12T05:53:09;100207.72;;;17.01;40.27
26563;BME280;14217;50.986;5.826;2023-03-12T05:58:12;100214.59;;;17.05;39.99
26563;BME280;14217;50.986;5.826;2023-03-12T06:03:14;100211.16;;;17.03;40.12
26563;BME280;14217;50.986;5.826;2023-03-12T06:08:16;100205.88;;;17.03;40.32
26563;BME280;14217;50.986;5.826;2023-03-12T06:13:19;100210.38;;;17.01;40.01
26563;BME280;14217;50.986;5.826;2023-03-12T06:18:21;100212.94;;;17.02;40.14
26563;BME280;14217;50.986;5.826;2023-03-12T06:23:23;100213.03;;;17.01;40.11
26563;BME280;14217;50.986;5.826;2023-03-12T06:28:25;100215.75;;;16.99;40.02
26563;BME280;14217;50.986;5.826;2023-03-12T06:33:27;100216.44;;;17.03;39.97
26563;BME280;14217;50.986;5.826;2023-03-12T06:38:29;100204.94;;;17.04;40.25
26563;BME280;14217;50.986;5.826;2023-03-12T06:43:33;100199.78;;;17.01;40.37
26563;BME280;14217;50.986;5.826;2023-03-12T06:48:35;100205.97;;;17.01;40.08
26563;BME280;14217;50.986;5.826;2023-03-12T06:53:37;100192.78;;;17.00;40.39
26563;BME280;14217;50.986;5.826;2023-03-12T06:58:42;100197.06;;;17.02;40.16
26563;BME280;14217;50.986;5.826;2023-03-12T07:03:44;100191.84;;;17.01;40.23
26563;BME280;14217;50.986;5.826;2023-03-12T07:08:47;100175.97;;;17.01;40.14
26563;BME280;14217;50.986;5.826;2023-03-12T07:13:49;100190.09;;;17.01;40.22
26563;BME280;14217;50.986;5.826;2023-03-12T07:18:52;100188.50;;;16.97;40.28
26563;BME280;14217;50.986;5.826;2023-03-12T07:23:54;100193.72;;;16.99;40.41
26563;BME280;14217;50.986;5.826;2023-03-12T07:28:56;100202.59;;;16.98;40.27
26563;BME280;14217;50.986;5.826;2023-03-12T07:33:58;100189.38;;;16.98;40.58
26563;BME280;14217;50.986;5.826;2023-03-12T07:39:00;100192.00;;;16.98;40.45
26563;BME280;14217;50.986;5.826;2023-03-12T07:44:02;100186.72;;;16.98;40.21
26563;BME280;14217;50.986;5.826;2023-03-12T07:49:04;100188.34;;;17.00;40.44
26563;BME280;14217;50.986;5.826;2023-03-12T07:54:06;100194.50;;;17.01;40.18
26563;BME280;14217;50.986;5.826;2023-03-12T07:59:08;100190.00;;;17.03;40.23
26563;BME280;14217;50.986;5.826;2023-03-12T08:04:10;100192.78;;;17.00;40.55
26563;BME280;14217;50.986;5.826;2023-03-12T08:09:13;100195.50;;;16.98;40.43
26563;BME280;14217;50.986;5.826;2023-03-12T08:14:15;100186.72;;;16.98;40.67
26563;BME280;14217;50.986;5.826;2023-03-12T08:19:17;100200.03;;;16.96;40.40
26563;BME280;14217;50.986;5.826;2023-03-12T08:24:20;100198.16;;;16.98;40.31
26563;BME280;14217;50.986;5.826;2023-03-12T08:29:22;100198.09;;;17.00;40.44
26563;BME280;14217;50.986;5.826;2023-03-12T08:34:24;100198.16;;;16.98;40.68
26563;BME280;14217;50.986;5.826;2023-03-12T08:39:26;100195.00;;;16.90;41.03
26563;BME280;14217;50.986;5.826;2023-03-12T08:44:31;100203.94;;;17.06;40.85
26563;BME280;14217;50.986;5.826;2023-03-12T08:49:33;100213.91;;;17.01;41.04
26563;BME280;14217;50.986;5.826;2023-03-12T08:54:35;100213.56;;;17.07;41.29
26563;BME280;14217;50.986;5.826;2023-03-12T08:59:37;100231.25;;;17.07;42.30
26563;BME280;14217;50.986;5.826;2023-03-12T09:04:39;100226.34;;;16.99;43.39
26563;BME280;14217;50.986;5.826;2023-03-12T09:09:41;100239.94;;;16.92;43.71
26563;BME280;14217;50.986;5.826;2023-03-12T09:14:43;100236.06;;;16.99;43.49
26563;BME280;14217;50.986;5.826;2023-03-12T09:20:07;100231.22;;;16.90;43.71
26563;BME280;14217;50.986;5.826;2023-03-12T09:25:10;100238.97;;;17.12;43.12
26563;BME280;14217;50.986;5.826;2023-03-12T09:30:16;100233.22;;;17.03;43.24
26563;BME280;14217;50.986;5.826;2023-03-12T09:35:18;100242.63;;;17.09;43.06
26563;BME280;14217;50.986;5.826;2023-03-12T09:40:23;100242.00;;;17.04;42.87
26563;BME280;14217;50.986;5.826;2023-03-12T09:45:36;100243.34;;;17.13;42.31
26563;BME280;14217;50.986;5.826;2023-03-12T09:50:41;100238.91;;;17.13;42.30
26563;BME280;14217;50.986;5.826;2023-03-12T09:55:46;100246.84;;;17.13;42.06
26563;BME280;14217;50.986;5.826;2023-03-12T10:00:56;100268.81;;;17.15;42.31
26563;BME280;14217;50.986;5.826;2023-03-12T10:06:19;100281.13;;;16.97;43.00
26563;BME280;14217;50.986;5.826;2023-03-12T10:11:31;100283.38;;;17.24;42.85
26563;BME280;14217;50.986;5.826;2023-03-12T10:27:27;100288.84;;;17.21;46.98
26563;BME280;14217;50.986;5.826;2023-03-12T10:32:40;100303.66;;;17.25;47.75
26563;BME280;14217;50.986;5.826;2023-03-12T10:37:45;100306.31;;;16.87;50.30
26563;BME280;14217;50.986;5.826;2023-03-12T10:42:48;100305.09;;;16.94;50.36
26563;BME280;14217;50.986;5.826;2023-03-12T10:47:53;100319.44;;;17.07;49.74
26563;BME280;14217;50.986;5.826;2023-03-12T10:58:30;100294.94;;;17.04;50.97
26563;BME280;14217;50.986;5.826;2023-03-12T11:03:32;100292.91;;;17.09;49.62
26563;BME280;14217;50.986;5.826;2023-03-12T11:08:36;100296.72;;;17.03;49.45
26563;BME280;14217;50.986;5.826;2023-03-12T11:13:40;100280.91;;;17.02;49.95
26563;BME280;14217;50.986;5.826;2023-03-12T11:18:58;100273.09;;;16.99;49.88
26563;BME280;14217;50.986;5.826;2023-03-12T11:24:08;100282.00;;;16.98;50.79
26563;BME280;14217;50.986;5.826;2023-03-12T11:29:20;100291.00;;;16.94;52.06
26563;BME280;14217;50.986;5.826;2023-03-12T11:34:27;100292.69;;;16.95;52.07
26563;BME280;14217;50.986;5.826;2023-03-12T11:39:42;100283.69;;;16.99;52.46
26563;BME280;14217;50.986;5.826;2023-03-12T12:06:14;100269.75;;;17.14;51.25
26563;BME280;14217;50.986;5.826;2023-03-12T12:17:26;100279.41;;;17.15;50.91
26563;BME280;14217;50.986;5.826;2023-03-12T12:22:27;100268.50;;;17.21;50.71
26563;BME280;14217;50.986;5.826;2023-03-12T12:27:49;100273.53;;;17.09;50.57
26563;BME280;14217;50.986;5.826;2023-03-12T12:43:43;100252.03;;;16.97;49.46
26563;BME280;14217;50.986;5.826;2023-03-12T12:48:56;100244.16;;;16.96;49.21
26563;BME280;14217;50.986;5.826;2023-03-12T12:59:33;100240.47;;;17.17;48.27
26563;BME280;14217;50.986;5.826;2023-03-12T13:04:38;100228.66;;;17.24;48.71
26563;BME280;14217;50.986;5.826;2023-03-12T13:09:59;100229.88;;;17.17;49.80
26563;BME280;14217;50.986;5.826;2023-03-12T13:20:41;100224.13;;;17.26;50.02
26563;BME280;14217;50.986;5.826;2023-03-12T13:26:10;100223.16;;;17.29;50.10
26563;BME280;14217;50.986;5.826;2023-03-12T13:36:29;100202.22;;;17.42;49.60
26563;BME280;14217;50.986;5.826;2023-03-12T13:41:38;100213.72;;;17.41;49.76
26563;BME280;14217;50.986;5.826;2023-03-12T13:46:41;100224.31;;;17.41;50.05
26563;BME280;14217;50.986;5.826;2023-03-12T13:51:53;100205.41;;;17.48;49.33
26563;BME280;14217;50.986;5.826;2023-03-12T13:57:02;100200.88;;;17.51;49.24
26563;BME280;14217;50.986;5.826;2023-03-12T14:02:15;100194.25;;;17.59;49.30
26563;BME280;14217;50.986;5.826;2023-03-12T14:07:46;100179.22;;;17.42;49.71
26563;BME280;14217;50.986;5.826;2023-03-12T14:13:08;100176.50;;;17.44;49.43
26563;BME280;14217;50.986;5.826;2023-03-12T14:18:17;100178.31;;;17.43;49.77
26563;BME280;14217;50.986;5.826;2023-03-12T14:23:25;100192.28;;;17.45;49.49
26563;BME280;14217;50.986;5.826;2023-03-12T14:28:31;100188.03;;;17.43;49.57
26563;BME280;14217;50.986;5.826;2023-03-12T14:33:53;100231.03;;;17.48;49.39
26563;BME280;14217;50.986;5.826;2023-03-12T14:39:11;100221.22;;;17.50;49.49
26563;BME280;14217;50.986;5.826;2023-03-12T14:44:24;100218.56;;;17.50;49.71
26563;BME280;14217;50.986;5.826;2023-03-12T14:49:28;100237.47;;;17.42;49.87
26563;BME280;14217;50.986;5.826;2023-03-12T14:54:30;100243.09;;;17.54;49.56
26563;BME280;14217;50.986;5.826;2023-03-12T14:59:33;100246.84;;;17.50;49.39
26563;BME280;14217;50.986;5.826;2023-03-12T15:04:39;100260.00;;;17.51;49.16
26563;BME280;14217;50.986;5.826;2023-03-12T15:09:43;100252.84;;;17.53;49.17
26563;BME280;14217;50.986;5.826;2023-03-12T15:14:48;100247.59;;;17.34;49.68
26563;BME280;14217;50.986;5.826;2023-03-12T15:19:51;100244.34;;;17.46;49.01
26563;BME280;14217;50.986;5.826;2023-03-12T15:25:00;100242.97;;;17.57;48.83
26563;BME280;14217;50.986;5.826;2023-03-12T15:30:21;100237.66;;;17.57;48.66
26563;BME280;14217;50.986;5.826;2023-03-12T15:35:24;100249.53;;;17.31;49.14
26563;BME280;14217;50.986;5.826;2023-03-12T15:40:28;100249.38;;;17.34;49.21
26563;BME280;14217;50.986;5.826;2023-03-12T15:45:37;100253.91;;;17.32;49.08
26563;BME280;14217;50.986;5.826;2023-03-12T15:50:41;100261.53;;;17.20;49.24
26563;BME280;14217;50.986;5.826;2023-03-12T16:01:18;100252.94;;;17.33;48.68
26563;BME280;14217;50.986;5.826;2023-03-12T16:06:25;100243.56;;;17.44;47.73
26563;BME280;14217;50.986;5.826;2023-03-12T16:11:32;100239.91;;;17.47;47.61
26563;BME280;14217;50.986;5.826;2023-03-12T16:16:36;100241.94;;;17.59;46.93
26563;BME280;14217;50.986;5.826;2023-03-12T16:21:38;100237.25;;;17.47;47.20
26563;BME280;14217;50.986;5.826;2023-03-12T16:26:46;100249.94;;;17.40;47.20
26563;BME280;14217;50.986;5.826;2023-03-12T16:31:53;100246.44;;;17.40;46.83
26563;BME280;14217;50.986;5.826;2023-03-12T16:36:55;100238.03;;;17.32;46.73
26563;BME280;14217;50.986;5.826;2023-03-12T16:42:00;100239.88;;;17.30;46.59
26563;BME280;14217;50.986;5.826;2023-03-12T16:47:02;100241.78;;;17.45;46.22
26563;BME280;14217;50.986;5.826;2023-03-12T16:52:18;100240.97;;;17.43;46.09
26563;BME280;14217;50.986;5.826;2023-03-12T16:57:43;100230.63;;;17.38;46.11
26563;BME280;14217;50.986;5.826;2023-03-12T17:02:47;100238.88;;;17.32;45.79
26563;BME280;14217;50.986;5.826;2023-03-12T17:07:49;100240.91;;;17.44;45.80
26563;BME280;14217;50.986;5.826;2023-03-12T17:12:51;100244.19;;;17.50;45.47
26563;BME280;14217;50.986;5.826;2023-03-12T17:17:53;100250.19;;;17.53;45.31
26563;BME280;14217;50.986;5.826;2023-03-12T17:22:56;100242.84;;;17.41;45.23
26563;BME280;14217;50.986;5.826;2023-03-12T17:27:59;100242.56;;;17.47;45.27
26563;BME280;14217;50.986;5.826;2023-03-12T17:33:04;100248.31;;;17.55;44.91
26563;BME280;14217;50.986;5.826;2023-03-12T17:38:07;100250.28;;;17.69;44.70
26563;BME280;14217;50.986;5.826;2023-03-12T17:43:10;100251.63;;;17.60;44.82
26563;BME280;14217;50.986;5.826;2023-03-12T17:48:13;100245.25;;;17.45;45.03
26563;BME280;14217;50.986;5.826;2023-03-12T17:53:15;100252.88;;;17.34;45.55
26563;BME280;14217;50.986;5.826;2023-03-12T17:58:17;100251.38;;;17.28;45.52
26563;BME280;14217;50.986;5.826;2023-03-12T18:03:19;100264.81;;;17.43;45.16
26563;BME280;14217;50.986;5.826;2023-03-12T18:08:21;100276.19;;;17.45;45.06
26563;BME280;14217;50.986;5.826;2023-03-12T18:13:23;100284.13;;;17.45;45.00
26563;BME280;14217;50.986;5.826;2023-03-12T18:18:25;100278.84;;;17.62;44.48
26563;BME280;14217;50.986;5.826;2023-03-12T18:23:27;100271.38;;;17.53;44.49
26563;BME280;14217;50.986;5.826;2023-03-12T18:28:29;100265.22;;;17.53;44.60
26563;BME280;14217;50.986;5.826;2023-03-12T18:33:31;100260.66;;;17.56;44.17
26563;BME280;14217;50.986;5.826;2023-03-12T18:38:33;100262.53;;;17.54;44.31
26563;BME280;14217;50.986;5.826;2023-03-12T18:43:36;100262.53;;;17.72;43.82
26563;BME280;14217;50.986;5.826;2023-03-12T18:48:39;100254.94;;;17.64;44.05
26563;BME280;14217;50.986;5.826;2023-03-12T18:53:44;100248.88;;;17.44;44.34
26563;BME280;14217;50.986;5.826;2023-03-12T18:58:47;100243.41;;;17.47;44.34
26563;BME280;14217;50.986;5.826;2023-03-12T19:03:49;100248.53;;;17.33;44.73
26563;BME280;14217;50.986;5.826;2023-03-12T19:08:51;100235.56;;;17.46;44.14
26563;BME280;14217;50.986;5.826;2023-03-12T19:13:53;100216.38;;;17.41;44.14
26563;BME280;14217;50.986;5.826;2023-03-12T19:18:55;100220.75;;;17.42;44.44
26563;BME280;14217;50.986;5.826;2023-03-12T19:23:57;100212.50;;;17.48;43.84
26563;BME280;14217;50.986;5.826;2023-03-12T19:28:59;100210.47;;;17.53;43.56
26563;BME280;14217;50.986;5.826;2023-03-12T19:34:01;100212.81;;;17.42;43.83
26563;BME280;14217;50.986;5.826;2023-03-12T19:39:03;100197.47;;;17.48;44.00
26563;BME280;14217;50.986;5.826;2023-03-12T19:44:19;100207.44;;;17.43;43.94
26563;BME280;14217;50.986;5.826;2023-03-12T19:49:21;100205.53;;;17.45;43.92
26563;BME280;14217;50.986;5.826;2023-03-12T19:54:23;100187.72;;;17.49;43.57
26563;BME280;14217;50.986;5.826;2023-03-12T19:59:25;100183.19;;;17.51;43.66
26563;BME280;14217;50.986;5.826;2023-03-12T20:04:27;100176.03;;;17.53;43.40
26563;BME280;14217;50.986;5.826;2023-03-12T20:09:29;100162.56;;;17.40;43.75
26563;BME280;14217;50.986;5.826;2023-03-12T20:14:31;100157.66;;;17.50;43.70
26563;BME280;14217;50.986;5.826;2023-03-12T20:19:33;100151.47;;;17.50;43.45
26563;BME280;14217;50.986;5.826;2023-03-12T20:24:35;100148.94;;;17.48;43.37
26563;BME280;14217;50.986;5.826;2023-03-12T20:29:37;100135.69;;;17.48;43.50
26563;BME280;14217;50.986;5.826;2023-03-12T20:34:40;100125.78;;;17.52;43.55
26563;BME280;14217;50.986;5.826;2023-03-12T20:39:42;100113.72;;;17.46;43.80
26563;BME280;14217;50.986;5.826;2023-03-12T20:44:44;100110.91;;;17.49;43.29
26563;BME280;14217;50.986;5.826;2023-03-12T20:49:46;100107.56;;;17.45;43.68
26563;BME280;14217;50.986;5.826;2023-03-12T20:54:48;100100.47;;;17.63;43.32
26563;BME280;14217;50.986;5.826;2023-03-12T20:59:50;100102.81;;;17.52;43.32
26563;BME280;14217;50.986;5.826;2023-03-12T21:04:52;100092.13;;;17.54;43.36
26563;BME280;14217;50.986;5.826;2023-03-12T21:09:54;100098.19;;;17.56;43.31
26563;BME280;14217;50.986;5.826;2023-03-12T21:14:56;100098.31;;;17.54;43.06
26563;BME280;14217;50.986;5.826;2023-03-12T21:20:09;100104.91;;;17.45;43.42
26563;BME280;14217;50.986;5.826;2023-03-12T21:25:11;100098.50;;;17.50;43.36
26563;BME280;14217;50.986;5.826;2023-03-12T21:30:14;100096.59;;;17.36;43.64
26563;BME280;14217;50.986;5.826;2023-03-12T21:35:16;100079.91;;;17.51;43.19
26563;BME280;14217;50.986;5.826;2023-03-12T21:40:21;100064.97;;;17.50;43.33
26563;BME280;14217;50.986;5.826;2023-03-12T21:45:23;100070.25;;;17.33;43.71
26563;BME280;14217;50.986;5.826;2023-03-12T21:50:25;100057.03;;;17.66;42.93
26563;BME280;14217;50.986;5.826;2023-03-12T21:55:27;100056.66;;;17.74;42.75
26563;BME280;14217;50.986;5.826;2023-03-12T22:00:29;100051.13;;;17.27;46.82
26563;BME280;14217;50.986;5.826;2023-03-12T22:05:31;100028.91;;;17.30;46.65
26563;BME280;14217;50.986;5.826;2023-03-12T22:10:33;100017.44;;;17.47;45.61
26563;BME280;14217;50.986;5.826;2023-03-12T22:15:35;100008.31;;;17.53;45.36
26563;BME280;14217;50.986;5.826;2023-03-12T22:20:37;99998.50;;;17.71;44.54
26563;BME280;14217;50.986;5.826;2023-03-12T22:25:39;99995.72;;;17.74;44.49
26563;BME280;14217;50.986;5.826;2023-03-12T22:30:41;99971.59;;;17.78;44.10
26563;BME280;14217;50.986;5.826;2023-03-12T22:35:45;99962.53;;;17.66;44.34
26563;BME280;14217;50.986;5.826;2023-03-12T22:40:48;99955.97;;;17.74;44.12
26563;BME280;14217;50.986;5.826;2023-03-12T22:45:53;99935.13;;;17.83;43.53
26563;BME280;14217;50.986;5.826;2023-03-12T22:50:55;99919.31;;;17.82;43.54
26563;BME280;14217;50.986;5.826;2023-03-12T22:56:02;99901.38;;;17.87;43.60
26563;BME280;14217;50.986;5.826;2023-03-12T23:01:10;99897.22;;;17.81;43.43
26563;BME280;14217;50.986;5.826;2023-03-12T23:06:17;99877.53;;;17.87;43.29
26563;BME280;14217;50.986;5.826;2023-03-12T23:11:20;99870.06;;;17.78;43.39
26563;BME280;14217;50.986;5.826;2023-03-12T23:16:24;99861.19;;;17.79;43.39
26563;BME280;14217;50.986;5.826;2023-03-12T23:21:26;99861.81;;;17.84;43.12
26563;BME280;14217;50.986;5.826;2023-03-12T23:26:29;99854.00;;;17.81;43.04
26563;BME280;14217;50.986;5.826;2023-03-12T23:31:31;99845.13;;;17.82;43.32
26563;BME280;14217;50.986;5.826;2023-03-12T23:36:33;99843.38;;;17.81;43.03
26563;BME280;14217;50.986;5.826;2023-03-12T23:41:35;99820.94;;;17.88;42.91
26563;BME280;14217;50.986;5.826;2023-03-12T23:46:38;99793.78;;;17.84;43.14
26563;BME280;14217;50.986;5.826;2023-03-12T23:51:40;99776.31;;;17.80;43.16
26563;BME280;14217;50.986;5.826;2023-03-12T23:56:42;99770.78;;;17.85;42.82
